Time;durP1;ratioP1;P1;durP2;ratioP2;P2;SDS_P1;SDS_P2;PMS_P1;PMS_P2;Temp;Humidity;BMP_temperature;BMP_pressure;BME280_temperature;BME280_humidity;BME280_pressure;Samples;Min_cycle;Max_cycle;Signal;HPM_P1;HPM_P2
2021/08/25 00:00:58;;;;;;;11.32;5.72;;;;;;;;;;5075134;28;20028;-78
2021/08/25 00:03:25;;;;;;;12.55;6.05;;;;;;;;;;5074811;28;20024;-78
2021/08/25 00:05:52;;;;;;;16.35;5.93;;;;;;;;;;5074418;28;20400;-78
2021/08/25 00:08:18;;;;;;;10.68;5.10;;;;;;;;;;5074367;28;20027;-78
2021/08/25 00:10:44;;;;;;;12.68;5.00;;;;;;;;;;5074953;28;20017;-78
2021/08/25 00:13:10;;;;;;;10.05;5.18;;;;;;;;;;5074323;28;20112;-77
2021/08/25 00:15:40;;;;;;;12.82;5.53;;;;;;;;;;5074198;28;20024;-78
2021/08/25 00:18:07;;;;;;;13.60;6.38;;;;;;;;;;5073175;28;20072;-78
2021/08/25 00:20:33;;;;;;;13.48;6.07;;;;;;;;;;5074194;28;20077;-77
2021/08/25 00:22:59;;;;;;;14.68;6.18;;;;;;;;;;5074149;28;20512;-77
2021/08/25 00:25:27;;;;;;;15.30;6.07;;;;;;;;;;5074376;28;20033;-78
2021/08/25 00:27:53;;;;;;;12.25;6.60;;;;;;;;;;5072692;28;20025;-78
2021/08/25 00:30:19;;;;;;;12.25;5.97;;;;;;;;;;5072749;28;20031;-77
2021/08/25 00:32:46;;;;;;;13.35;6.20;;;;;;;;;;5073973;28;20017;-77
2021/08/25 00:35:12;;;;;;;17.48;6.78;;;;;;;;;;5073909;28;20021;-79
2021/08/25 00:37:38;;;;;;;12.25;5.85;;;;;;;;;;5074103;28;20031;-79
2021/08/25 00:40:05;;;;;;;14.25;6.68;;;;;;;;;;5074092;28;20028;-77
2021/08/25 00:42:31;;;;;;;13.98;6.38;;;;;;;;;;5073758;28;20028;-78
2021/08/25 00:44:58;;;;;;;15.77;6.68;;;;;;;;;;5073707;28;20585;-78
2021/08/25 00:47:24;;;;;;;15.98;6.65;;;;;;;;;;5073677;28;20038;-77
2021/08/25 00:49:50;;;;;;;14.77;7.00;;;;;;;;;;5073580;28;20477;-79
2021/08/25 00:52:16;;;;;;;11.20;6.15;;;;;;;;;;5073900;28;20074;-76
2021/08/25 00:54:42;;;;;;;15.75;6.50;;;;;;;;;;5073554;28;20392;-77
2021/08/25 00:57:08;;;;;;;14.85;7.00;;;;;;;;;;5073542;28;20016;-79
2021/08/25 00:59:34;;;;;;;13.10;6.22;;;;;;;;;;5073506;28;20484;-76
2021/08/25 01:02:18;;;;;;;11.43;6.53;;;;;;;;;;5073737;28;20035;-77
2021/08/25 01:04:48;;;;;;;16.77;6.97;;;;;;;;;;5073744;28;20024;-77
2021/08/25 01:07:17;;;;;;;21.98;7.15;;;;;;;;;;5073722;28;20028;-77
2021/08/25 01:09:43;;;;;;;13.00;8.00;;;;;;;;;;5073886;28;20107;-78
2021/08/25 01:12:10;;;;;;;16.77;7.30;;;;;;;;;;5073353;28;20146;-76
2021/08/25 01:14:36;;;;;;;13.10;6.70;;;;;;;;;;5073290;28;20388;-78
2021/08/25 01:17:04;;;;;;;14.55;7.00;;;;;;;;;;5073081;28;20491;-77
2021/08/25 01:19:32;;;;;;;15.88;7.35;;;;;;;;;;5073611;28;20043;-77
2021/08/25 01:21:58;;;;;;;11.88;6.70;;;;;;;;;;5073284;28;20043;-78
2021/08/25 01:24:24;;;;;;;12.77;6.63;;;;;;;;;;5073511;28;20543;-77
2021/08/25 01:26:51;;;;;;;11.15;6.63;;;;;;;;;;5073438;28;20484;-78
2021/08/25 01:29:37;;;;;;;13.15;6.95;;;;;;;;;;5072829;28;20024;-77
2021/08/25 01:32:04;;;;;;;12.90;7.25;;;;;;;;;;5073504;28;20033;-77
2021/08/25 01:34:30;;;;;;;14.52;6.78;;;;;;;;;;5073136;28;20374;-78
2021/08/25 01:36:56;;;;;;;15.55;7.15;;;;;;;;;;5073097;28;20032;-76
2021/08/25 01:39:22;;;;;;;13.25;6.70;;;;;;;;;;5073367;28;20024;-78
2021/08/25 01:41:48;;;;;;;12.73;6.65;;;;;;;;;;5073647;28;20423;-77
2021/08/25 01:44:14;;;;;;;11.00;6.47;;;;;;;;;;5071779;28;20029;-75
2021/08/25 01:46:41;;;;;;;15.27;6.80;;;;;;;;;;5073074;28;20103;-77
2021/08/25 01:49:11;;;;;;;11.55;6.43;;;;;;;;;;5072917;28;20024;-77
2021/08/25 01:51:37;;;;;;;9.40;6.03;;;;;;;;;;5073000;28;20024;-76
2021/08/25 01:54:04;;;;;;;11.52;6.55;;;;;;;;;;5071653;28;20376;-77
2021/08/25 01:56:30;;;;;;;12.43;6.00;;;;;;;;;;5072933;28;20082;-77
2021/08/25 01:58:59;;;;;;;13.85;6.97;;;;;;;;;;5073164;28;20427;-77
2021/08/25 02:01:25;;;;;;;11.68;6.25;;;;;;;;;;5073444;28;20029;-78
2021/08/25 02:03:51;;;;;;;14.93;7.40;;;;;;;;;;5072814;28;20518;-77
2021/08/25 02:06:17;;;;;;;11.18;6.38;;;;;;;;;;5073110;28;20029;-76
2021/08/25 02:08:43;;;;;;;13.38;6.22;;;;;;;;;;5072786;28;20028;-77
2021/08/25 02:11:09;;;;;;;15.38;6.57;;;;;;;;;;5072792;28;20028;-75
2021/08/25 02:13:35;;;;;;;11.68;7.00;;;;;;;;;;5073297;28;20436;-77
2021/08/25 02:16:01;;;;;;;12.25;6.97;;;;;;;;;;5072654;28;20033;-76
2021/08/25 02:18:27;;;;;;;10.38;5.93;;;;;;;;;;5072480;28;20049;-77
2021/08/25 02:20:53;;;;;;;17.23;6.40;;;;;;;;;;5072972;28;20032;-78
2021/08/25 02:23:19;;;;;;;12.95;6.63;;;;;;;;;;5072895;28;20032;-76
2021/08/25 02:25:45;;;;;;;12.48;6.35;;;;;;;;;;5072674;28;20396;-77
2021/08/25 02:28:11;;;;;;;11.13;6.72;;;;;;;;;;5072544;28;20025;-78
2021/08/25 02:30:38;;;;;;;10.32;6.20;;;;;;;;;;5072733;28;20027;-77
2021/08/25 02:33:04;;;;;;;13.75;6.57;;;;;;;;;;5072897;28;20021;-75
2021/08/25 02:35:31;;;;;;;14.60;6.60;;;;;;;;;;5072537;28;20025;-76
2021/08/25 02:37:57;;;;;;;10.18;6.35;;;;;;;;;;5072857;28;20447;-79
2021/08/25 02:40:23;;;;;;;12.93;6.57;;;;;;;;;;5072494;28;20024;-77
2021/08/25 02:42:49;;;;;;;10.82;6.85;;;;;;;;;;5075918;28;20012;-76
2021/08/25 02:45:15;;;;;;;11.93;6.57;;;;;;;;;;5076026;28;20034;-75
2021/08/25 02:47:41;;;;;;;10.68;5.60;;;;;;;;;;5074674;28;20480;-76
2021/08/25 02:50:07;;;;;;;13.35;6.75;;;;;;;;;;5075862;28;20028;-77
2021/08/25 02:52:33;;;;;;;11.55;6.82;;;;;;;;;;5075904;28;20024;-77
2021/08/25 02:55:00;;;;;;;11.80;6.43;;;;;;;;;;5080985;28;20024;-77
2021/08/25 02:57:27;;;;;;;10.30;5.85;;;;;;;;;;5081949;28;20023;-76
2021/08/25 02:59:53;;;;;;;11.02;6.40;;;;;;;;;;5082135;28;20047;-76
2021/08/25 03:02:19;;;;;;;9.88;5.90;;;;;;;;;;5076253;28;20491;-78
2021/08/25 03:04:45;;;;;;;9.32;5.57;;;;;;;;;;5075665;28;20059;-78
2021/08/25 03:07:11;;;;;;;10.65;6.00;;;;;;;;;;5075904;28;20059;-78
2021/08/25 03:09:37;;;;;;;14.98;6.75;;;;;;;;;;5075534;28;20112;-76
2021/08/25 03:12:03;;;;;;;10.48;5.75;;;;;;;;;;5075825;28;20074;-77
2021/08/25 03:14:29;;;;;;;11.00;6.28;;;;;;;;;;5076092;28;20107;-77
2021/08/25 03:16:55;;;;;;;9.30;5.55;;;;;;;;;;5075379;28;20020;-78
2021/08/25 03:19:21;;;;;;;13.55;6.35;;;;;;;;;;5075263;28;20060;-78
2021/08/25 03:21:47;;;;;;;9.45;5.70;;;;;;;;;;5075391;28;20029;-78
2021/08/25 03:24:13;;;;;;;9.90;5.63;;;;;;;;;;5075383;28;20476;-78
2021/08/25 03:26:39;;;;;;;9.23;6.07;;;;;;;;;;5075571;28;20029;-77
2021/08/25 03:29:05;;;;;;;10.05;5.90;;;;;;;;;;5073906;28;20035;-79
2021/08/25 03:31:31;;;;;;;10.98;6.53;;;;;;;;;;5075463;28;20025;-79
2021/08/25 03:33:57;;;;;;;11.73;6.53;;;;;;;;;;5075443;28;20099;-77
2021/08/25 03:36:24;;;;;;;13.70;6.45;;;;;;;;;;5075392;28;20025;-78
2021/08/25 03:38:50;;;;;;;9.43;5.90;;;;;;;;;;5075403;28;20462;-79
2021/08/25 03:41:16;;;;;;;9.55;5.88;;;;;;;;;;5074996;28;20032;-78
2021/08/25 03:43:42;;;;;;;9.10;6.05;;;;;;;;;;5074973;28;20024;-77
2021/08/25 03:46:08;;;;;;;11.23;5.72;;;;;;;;;;5074924;28;20028;-77
2021/08/25 03:48:34;;;;;;;11.73;6.20;;;;;;;;;;5074813;28;20029;-79
2021/08/25 03:51:00;;;;;;;11.00;5.93;;;;;;;;;;5074824;28;20074;-78
2021/08/25 03:53:26;;;;;;;9.50;5.80;;;;;;;;;;5074950;28;20024;-79
2021/08/25 03:55:52;;;;;;;10.50;6.10;;;;;;;;;;5074682;28;20060;-79
2021/08/25 03:58:18;;;;;;;9.18;5.22;;;;;;;;;;5074900;28;20067;-77
2021/08/25 04:00:44;;;;;;;13.75;5.80;;;;;;;;;;5074574;28;20028;-77
2021/08/25 04:03:10;;;;;;;8.80;4.93;;;;;;;;;;5074540;28;20104;-77
2021/08/25 04:05:36;;;;;;;9.88;5.15;;;;;;;;;;5074490;28;20029;-78
2021/08/25 04:08:03;;;;;;;10.25;5.45;;;;;;;;;;5074375;28;20028;-78
2021/08/25 04:10:28;;;;;;;8.07;5.60;;;;;;;;;;5074417;28;20423;-77
2021/08/25 04:12:54;;;;;;;8.50;5.10;;;;;;;;;;5074357;28;20033;-76
2021/08/25 04:15:20;;;;;;;8.68;4.68;;;;;;;;;;5074442;28;20024;-77
2021/08/25 04:17:46;;;;;;;9.25;4.88;;;;;;;;;;5074243;28;20106;-76
2021/08/25 04:20:13;;;;;;;10.02;6.00;;;;;;;;;;5074222;28;20481;-78
2021/08/25 04:22:39;;;;;;;9.38;5.88;;;;;;;;;;5074194;28;20029;-79
2021/08/25 04:25:05;;;;;;;10.10;5.50;;;;;;;;;;5074122;28;20035;-80
2021/08/25 04:27:31;;;;;;;9.32;5.18;;;;;;;;;;5074072;28;20411;-77
2021/08/25 04:29:57;;;;;;;9.40;6.20;;;;;;;;;;5073965;28;20047;-79
2021/08/25 04:32:23;;;;;;;13.90;6.10;;;;;;;;;;5073959;28;20020;-75
2021/08/25 04:34:49;;;;;;;9.85;5.60;;;;;;;;;;5073937;28;20059;-77
2021/08/25 04:37:15;;;;;;;11.07;6.63;;;;;;;;;;5073832;28;20081;-77
2021/08/25 04:39:41;;;;;;;10.27;7.00;;;;;;;;;;5073811;28;20028;-79
2021/08/25 04:42:07;;;;;;;11.30;6.43;;;;;;;;;;5074045;28;20077;-77
2021/08/25 04:44:33;;;;;;;10.65;6.85;;;;;;;;;;5073750;28;20025;-77
2021/08/25 04:46:59;;;;;;;8.55;5.85;;;;;;;;;;5073730;28;20411;-77
2021/08/25 04:49:25;;;;;;;10.95;6.38;;;;;;;;;;5073578;28;20111;-79
2021/08/25 04:51:51;;;;;;;10.00;5.78;;;;;;;;;;5073933;28;20020;-76
2021/08/25 04:54:17;;;;;;;10.13;5.70;;;;;;;;;;5073892;28;20465;-79
2021/08/25 04:56:43;;;;;;;11.02;6.53;;;;;;;;;;5073551;28;20024;-78
2021/08/25 04:59:09;;;;;;;11.95;6.43;;;;;;;;;;5073536;28;20044;-77
2021/08/25 05:01:35;;;;;;;10.57;5.78;;;;;;;;;;5073827;28;20024;-77
2021/08/25 05:04:01;;;;;;;11.73;6.75;;;;;;;;;;5072992;28;20029;-77
2021/08/25 05:06:27;;;;;;;10.57;6.72;;;;;;;;;;5072172;28;20044;-77
2021/08/25 05:08:53;;;;;;;11.02;5.43;;;;;;;;;;5073343;28;20469;-78
2021/08/25 05:11:19;;;;;;;10.80;6.00;;;;;;;;;;5073645;28;20032;-78
2021/08/25 05:13:45;;;;;;;11.05;6.22;;;;;;;;;;5073410;28;20492;-78
2021/08/25 05:16:12;;;;;;;9.32;5.40;;;;;;;;;;5072032;28;20021;-78
2021/08/25 05:18:39;;;;;;;9.10;5.70;;;;;;;;;;5073137;28;20064;-77
2021/08/25 05:21:05;;;;;;;10.02;6.53;;;;;;;;;;5073849;28;20104;-79
2021/08/25 05:23:31;;;;;;;11.75;6.65;;;;;;;;;;5073340;28;20464;-80
2021/08/25 05:25:57;;;;;;;9.18;5.70;;;;;;;;;;5073555;28;20028;-78
2021/08/25 05:28:24;;;;;;;11.57;6.60;;;;;;;;;;5073149;28;20037;-78
2021/08/25 05:30:50;;;;;;;10.38;6.60;;;;;;;;;;5073235;28;20028;-78
2021/08/25 05:33:16;;;;;;;10.10;6.60;;;;;;;;;;5073157;28;20033;-79
2021/08/25 05:35:42;;;;;;;8.90;5.93;;;;;;;;;;5073136;28;20017;-78
2021/08/25 05:38:08;;;;;;;8.98;5.40;;;;;;;;;;5073157;28;20031;-77
2021/08/25 05:40:34;;;;;;;11.00;5.93;;;;;;;;;;5073372;28;20472;-79
2021/08/25 05:43:00;;;;;;;12.75;7.43;;;;;;;;;;5071774;28;20056;-76
2021/08/25 05:45:26;;;;;;;10.38;5.93;;;;;;;;;;5073035;28;20025;-77
2021/08/25 05:47:56;;;;;;;9.05;5.90;;;;;;;;;;5072944;28;20425;-76
2021/08/25 05:50:22;;;;;;;8.48;6.05;;;;;;;;;;5073340;28;20586;-77
2021/08/25 05:52:48;;;;;;;10.20;6.47;;;;;;;;;;5072933;28;20021;-78
2021/08/25 05:55:14;;;;;;;11.02;6.57;;;;;;;;;;5073197;28;20027;-79
2021/08/25 05:57:45;;;;;;;10.38;6.53;;;;;;;;;;5072896;28;20025;-78
2021/08/25 06:00:12;;;;;;;12.15;6.53;;;;;;;;;;5073536;28;20460;-76
2021/08/25 06:02:38;;;;;;;11.98;7.07;;;;;;;;;;5072915;28;20074;-78
2021/08/25 06:05:04;;;;;;;11.90;6.40;;;;;;;;;;5071621;28;20029;-76
2021/08/25 06:07:30;;;;;;;9.70;6.35;;;;;;;;;;5073103;28;20033;-76
2021/08/25 06:09:56;;;;;;;12.73;7.82;;;;;;;;;;5073024;28;20087;-77
2021/08/25 06:12:22;;;;;;;12.23;7.22;;;;;;;;;;5073103;28;20025;-75
2021/08/25 06:14:48;;;;;;;11.23;6.70;;;;;;;;;;5072687;28;20017;-76
2021/08/25 06:17:14;;;;;;;10.65;6.72;;;;;;;;;;5073944;28;20024;-78
2021/08/25 06:19:40;;;;;;;12.40;6.55;;;;;;;;;;5076845;28;20029;-76
2021/08/25 06:22:06;;;;;;;9.95;6.05;;;;;;;;;;5076533;28;20150;-77
2021/08/25 06:24:32;;;;;;;10.57;6.78;;;;;;;;;;5076740;28;20058;-79
2021/08/25 06:26:58;;;;;;;10.35;6.55;;;;;;;;;;5076661;28;20486;-77
2021/08/25 06:29:24;;;;;;;11.93;6.90;;;;;;;;;;5076272;28;20484;-77
2021/08/25 06:31:50;;;;;;;11.82;6.82;;;;;;;;;;5076297;28;20029;-76
2021/08/25 06:34:16;;;;;;;11.98;6.88;;;;;;;;;;5076270;28;20020;-79
2021/08/25 06:36:42;;;;;;;14.40;7.15;;;;;;;;;;5076222;28;20552;-75
2021/08/25 06:39:08;;;;;;;10.85;7.00;;;;;;;;;;5076211;28;20103;-75
2021/08/25 06:41:34;;;;;;;13.60;6.68;;;;;;;;;;5076442;28;20056;-76
2021/08/25 06:44:01;;;;;;;10.85;6.32;;;;;;;;;;5076599;28;20028;-77
2021/08/25 06:46:27;;;;;;;10.48;6.15;;;;;;;;;;5076101;28;20024;-77
2021/08/25 06:48:53;;;;;;;11.50;6.47;;;;;;;;;;5075918;28;20035;-76
2021/08/25 06:51:19;;;;;;;10.07;6.05;;;;;;;;;;5075995;28;20032;-76
2021/08/25 06:53:45;;;;;;;9.95;6.45;;;;;;;;;;5075908;28;20024;-76
2021/08/25 06:56:11;;;;;;;9.23;6.45;;;;;;;;;;5075884;28;20028;-77
2021/08/25 06:58:37;;;;;;;14.23;6.88;;;;;;;;;;5075840;28;20475;-77
2021/08/25 07:01:03;;;;;;;10.15;6.82;;;;;;;;;;5075799;28;20028;-75
2021/08/25 07:03:29;;;;;;;10.82;6.95;;;;;;;;;;5076008;28;20056;-75
2021/08/25 07:05:55;;;;;;;10.35;6.65;;;;;;;;;;5075745;28;20029;-76
2021/08/25 07:08:21;;;;;;;12.88;6.43;;;;;;;;;;5075627;28;20024;-76
2021/08/25 07:10:47;;;;;;;9.88;5.43;;;;;;;;;;5075661;28;20024;-76
2021/08/25 07:13:13;;;;;;;8.93;5.97;;;;;;;;;;5075636;28;20013;-78
2021/08/25 07:15:39;;;;;;;10.02;5.70;;;;;;;;;;5075469;28;20070;-77
2021/08/25 07:18:05;;;;;;;19.15;7.13;;;;;;;;;;5074158;28;20131;-75
2021/08/25 07:20:31;;;;;;;11.55;6.53;;;;;;;;;;5075467;28;20048;-78
2021/08/25 07:22:57;;;;;;;9.88;6.10;;;;;;;;;;5075432;28;20016;-76
2021/08/25 07:25:23;;;;;;;9.90;5.85;;;;;;;;;;5075647;28;20032;-77
2021/08/25 07:27:49;;;;;;;9.15;5.82;;;;;;;;;;5075121;28;20086;-76
2021/08/25 07:30:15;;;;;;;9.57;5.50;;;;;;;;;;5075489;28;20108;-77
2021/08/25 07:32:41;;;;;;;9.02;5.82;;;;;;;;;;5075503;28;20421;-76
2021/08/25 07:35:11;;;;;;;9.88;6.00;;;;;;;;;;5075212;28;20388;-77
2021/08/25 07:37:37;;;;;;;10.57;6.43;;;;;;;;;;5075183;28;20020;-75
2021/08/25 07:40:07;;;;;;;12.55;6.70;;;;;;;;;;5075064;28;20024;-76
2021/08/25 07:42:34;;;;;;;9.15;6.03;;;;;;;;;;5075005;28;20021;-76
2021/08/25 07:45:00;;;;;;;10.35;5.72;;;;;;;;;;5074966;28;20078;-77
2021/08/25 07:47:26;;;;;;;10.43;6.72;;;;;;;;;;5074954;28;20100;-76
2021/08/25 07:49:52;;;;;;;9.43;5.93;;;;;;;;;;5075042;28;20185;-78
2021/08/25 07:52:18;;;;;;;10.85;5.70;;;;;;;;;;5074800;28;20040;-77
2021/08/25 07:54:44;;;;;;;11.00;6.53;;;;;;;;;;5074716;28;20411;-77
2021/08/25 07:57:10;;;;;;;11.07;6.07;;;;;;;;;;5074714;28;20370;-76
2021/08/25 07:59:36;;;;;;;10.88;6.45;;;;;;;;;;5074643;28;20035;-77
2021/08/25 08:02:02;;;;;;;13.48;6.40;;;;;;;;;;5074867;28;20031;-77
2021/08/25 08:04:28;;;;;;;11.95;6.65;;;;;;;;;;5074889;28;20103;-76
2021/08/25 08:06:54;;;;;;;10.10;6.53;;;;;;;;;;5074527;28;20433;-77
2021/08/25 08:09:20;;;;;;;10.95;6.57;;;;;;;;;;5075010;28;20495;-79
2021/08/25 08:11:47;;;;;;;12.43;6.97;;;;;;;;;;5074827;28;20025;-76
2021/08/25 08:14:13;;;;;;;10.77;6.88;;;;;;;;;;5073216;28;20050;-75
2021/08/25 08:16:43;;;;;;;12.18;6.43;;;;;;;;;;5074273;28;20208;-77
2021/08/25 08:19:20;;;;;;;9.23;6.45;;;;;;;;;;5073908;28;20406;-79
2021/08/25 08:21:47;;;;;;;9.65;6.53;;;;;;;;;;5074262;28;20032;-77
2021/08/25 08:24:13;;;;;;;9.85;5.70;;;;;;;;;;5072906;28;20032;-78
2021/08/25 08:26:40;;;;;;;9.13;5.85;;;;;;;;;;5074146;28;20553;-77
2021/08/25 08:29:06;;;;;;;9.77;5.95;;;;;;;;;;5074263;28;20104;-77
2021/08/25 08:31:32;;;;;;;11.02;7.22;;;;;;;;;;5074025;28;20046;-77
2021/08/25 08:33:58;;;;;;;9.27;6.15;;;;;;;;;;5073987;28;20025;-76
2021/08/25 08:36:25;;;;;;;11.63;6.95;;;;;;;;;;5074193;28;20067;-77
2021/08/25 08:38:51;;;;;;;10.07;6.30;;;;;;;;;;5073159;28;20032;-77
2021/08/25 08:41:17;;;;;;;11.30;6.85;;;;;;;;;;5073855;28;20104;-78
2021/08/25 08:43:43;;;;;;;9.55;6.50;;;;;;;;;;5073786;28;20028;-77
2021/08/25 08:46:13;;;;;;;8.85;5.60;;;;;;;;;;5072471;28;20074;-76
2021/08/25 08:48:39;;;;;;;;;;;;;;;;;;5074389;28;20098;-78
2021/08/25 08:51:06;;;;;;;9.55;6.03;;;;;;;;;;5073677;28;19904;-78
2021/08/25 08:53:32;;;;;;;9.18;6.65;;;;;;;;;;5073883;28;20021;-78
2021/08/25 08:55:58;;;;;;;12.65;6.40;;;;;;;;;;5073919;28;20051;-78
2021/08/25 08:58:24;;;;;;;10.27;6.07;;;;;;;;;;5073610;28;20028;-79
2021/08/25 09:00:50;;;;;;;9.60;6.57;;;;;;;;;;5073587;28;20028;-77
2021/08/25 09:03:35;;;;;;;11.77;6.40;;;;;;;;;;5072277;28;20102;-77
2021/08/25 09:06:01;;;;;;;10.15;6.28;;;;;;;;;;5073611;28;20056;-77
2021/08/25 09:08:31;;;;;;;9.27;6.65;;;;;;;;;;5073673;28;20051;-77
2021/08/25 09:11:05;;;;;;;9.52;6.43;;;;;;;;;;5072126;28;20423;-76
2021/08/25 09:13:47;;;;;;;13.82;6.80;;;;;;;;;;5073669;28;20031;-75
2021/08/25 09:16:27;;;;;;;10.95;5.55;;;;;;;;;;5073575;28;20025;-76
2021/08/25 09:19:00;;;;;;;7.55;5.45;;;;;;;;;;5073113;28;20127;-77
2021/08/25 09:21:30;;;;;;;8.07;6.00;;;;;;;;;;5073909;28;20052;-77
2021/08/25 09:23:56;;;;;;;10.20;5.35;;;;;;;;;;5073588;28;20021;-79
2021/08/25 09:26:22;;;;;;;9.77;5.88;;;;;;;;;;5073786;28;20107;-76
2021/08/25 09:28:50;;;;;;;8.55;5.28;;;;;;;;;;5073415;28;20104;-76
2021/08/25 09:31:16;;;;;;;7.90;5.72;;;;;;;;;;5073231;28;20027;-77
2021/08/25 09:33:43;;;;;;;8.13;5.88;;;;;;;;;;5073198;28;20021;-76
2021/08/25 09:36:11;;;;;;;8.65;5.43;;;;;;;;;;5073440;28;20031;-78
2021/08/25 09:38:37;;;;;;;7.75;4.88;;;;;;;;;;5073165;28;20028;-77
2021/08/25 09:41:05;;;;;;;8.95;5.43;;;;;;;;;;5073647;28;20048;-78
2021/08/25 09:43:35;;;;;;;9.65;5.70;;;;;;;;;;5073075;28;20448;-76
2021/08/25 09:46:05;;;;;;;8.60;5.35;;;;;;;;;;5073360;28;20522;-77
2021/08/25 09:48:35;;;;;;;9.18;5.20;;;;;;;;;;5072957;28;20025;-76
2021/08/25 09:51:01;;;;;;;8.43;4.72;;;;;;;;;;5075537;28;20096;-77
2021/08/25 09:53:27;;;;;;;7.07;4.75;;;;;;;;;;5077117;28;20095;-77
2021/08/25 09:55:53;;;;;;;7.32;4.70;;;;;;;;;;5077099;28;20028;-77
2021/08/25 09:58:22;;;;;;;8.68;5.47;;;;;;;;;;5077011;28;20028;-77
2021/08/25 10:00:48;;;;;;;7.38;4.95;;;;;;;;;;5076984;28;20021;-78
2021/08/25 10:03:14;;;;;;;7.82;5.00;;;;;;;;;;5076876;28;20138;-76
2021/08/25 10:05:41;;;;;;;7.25;4.45;;;;;;;;;;5077107;28;20085;-78
2021/08/25 10:08:07;;;;;;;7.57;4.32;;;;;;;;;;5076782;28;20028;-77
2021/08/25 10:10:33;;;;;;;8.10;4.68;;;;;;;;;;5077043;28;20081;-78
2021/08/25 10:12:59;;;;;;;7.50;5.00;;;;;;;;;;5077013;28;20024;-79
2021/08/25 10:15:31;;;;;;;7.50;4.72;;;;;;;;;;5076593;28;20082;-77
2021/08/25 10:17:57;;;;;;;6.82;4.80;;;;;;;;;;5076451;28;20059;-79
2021/08/25 10:20:27;;;;;;;8.45;4.50;;;;;;;;;;5076538;28;20021;-78
2021/08/25 10:22:53;;;;;;;6.55;4.60;;;;;;;;;;5076799;28;20013;-79
2021/08/25 10:25:20;;;;;;;6.63;3.83;;;;;;;;;;5076449;28;20028;-78
2021/08/25 10:28:00;;;;;;;6.25;4.00;;;;;;;;;;5076482;28;20500;-77
2021/08/25 10:30:26;;;;;;;6.00;4.10;;;;;;;;;;5076381;28;20032;-77
2021/08/25 10:32:52;;;;;;;5.68;3.65;;;;;;;;;;5076301;28;20028;-77
2021/08/25 10:35:32;;;;;;;6.75;4.15;;;;;;;;;;5076539;28;20028;-77
2021/08/25 10:38:16;;;;;;;6.80;4.07;;;;;;;;;;5076537;28;20500;-79
2021/08/25 10:40:42;;;;;;;6.05;3.53;;;;;;;;;;5076756;28;20028;-77
2021/08/25 10:43:09;;;;;;;6.78;3.90;;;;;;;;;;5076145;28;20095;-78
2021/08/25 10:45:44;;;;;;;7.45;3.72;;;;;;;;;;5076117;28;20028;-76
2021/08/25 10:48:10;;;;;;;6.70;3.40;;;;;;;;;;5076044;28;20082;-77
2021/08/25 10:50:55;;;;;;;5.78;3.78;;;;;;;;;;5074768;28;20400;-77
2021/08/25 10:53:32;;;;;;;5.15;3.33;;;;;;;;;;5076037;28;20024;-77
2021/08/25 10:56:09;;;;;;;4.80;3.72;;;;;;;;;;5074665;28;20017;-76
2021/08/25 10:58:44;;;;;;;7.55;4.40;;;;;;;;;;5076152;28;20027;-77
2021/08/25 11:01:24;;;;;;;6.00;4.10;;;;;;;;;;5075729;28;20541;-77
2021/08/25 11:03:50;;;;;;;5.60;3.97;;;;;;;;;;5076372;28;20116;-77
2021/08/25 11:06:28;;;;;;;6.63;3.95;;;;;;;;;;5075844;28;20439;-78
2021/08/25 11:09:08;;;;;;;6.20;3.78;;;;;;;;;;5074371;28;20036;-76
2021/08/25 11:11:34;;;;;;;7.28;4.18;;;;;;;;;;5076254;28;20031;-78
2021/08/25 11:14:00;;;;;;;7.07;3.80;;;;;;;;;;5075870;28;20024;-77
2021/08/25 11:16:26;;;;;;;6.15;3.65;;;;;;;;;;5075585;28;20468;-77
2021/08/25 11:18:52;;;;;;;7.78;3.90;;;;;;;;;;5075509;28;20044;-79
2021/08/25 11:21:18;;;;;;;7.40;3.92;;;;;;;;;;5074313;28;20056;-76
2021/08/25 11:23:55;;;;;;;6.22;3.95;;;;;;;;;;5075415;28;20511;-78
2021/08/25 11:26:21;;;;;;;8.63;3.47;;;;;;;;;;5075396;28;20035;-75
2021/08/25 11:28:47;;;;;;;6.75;3.88;;;;;;;;;;5075838;28;20071;-77
2021/08/25 11:31:14;;;;;;;5.85;3.95;;;;;;;;;;5075272;28;20025;-76
2021/08/25 11:33:46;;;;;;;6.38;3.72;;;;;;;;;;5075191;28;20545;-77
2021/08/25 11:36:12;;;;;;;6.57;3.72;;;;;;;;;;5075505;28;20099;-77
2021/08/25 11:38:40;;;;;;;7.43;3.15;;;;;;;;;;5075140;28;20429;-79
2021/08/25 11:41:06;;;;;;;6.80;3.72;;;;;;;;;;5075119;28;20028;-77
2021/08/25 11:43:34;;;;;;;5.63;3.60;;;;;;;;;;5075339;28;20476;-76
2021/08/25 11:46:00;;;;;;;7.57;3.60;;;;;;;;;;5074958;28;20031;-78
2021/08/25 11:48:30;;;;;;;5.45;3.80;;;;;;;;;;5074888;28;20089;-77
2021/08/25 11:50:57;;;;;;;5.85;3.58;;;;;;;;;;5074958;28;20081;-76
2021/08/25 11:53:25;;;;;;;7.38;3.75;;;;;;;;;;5075130;28;20048;-78
2021/08/25 11:55:51;;;;;;;5.20;3.47;;;;;;;;;;5074776;28;20550;-78
2021/08/25 11:58:28;;;;;;;5.07;3.20;;;;;;;;;;5075050;28;20066;-78
2021/08/25 12:00:55;;;;;;;7.40;3.58;;;;;;;;;;5075239;28;20369;-77
2021/08/25 12:03:22;;;;;;;6.93;3.75;;;;;;;;;;5074863;28;20020;-76
2021/08/25 12:05:52;;;;;;;5.93;3.47;;;;;;;;;;5074573;28;20504;-78
2021/08/25 12:08:18;;;;;;;;;;;;;;;;;;5074912;28;20017;-78
2021/08/25 12:10:48;;;;;;;4.97;3.15;;;;;;;;;;5074500;28;19930;-77
2021/08/25 12:13:33;;;;;;;7.45;3.42;;;;;;;;;;5074460;28;20078;-77
2021/08/25 12:16:00;;;;;;;6.85;3.47;;;;;;;;;;5074301;28;20023;-78
2021/08/25 12:18:27;;;;;;;4.82;3.25;;;;;;;;;;5074121;28;20080;-78
2021/08/25 12:20:57;;;;;;;6.00;3.78;;;;;;;;;;5074246;28;20023;-79
2021/08/25 12:23:27;;;;;;;5.72;3.20;;;;;;;;;;5074530;28;20031;-77
2021/08/25 12:25:53;;;;;;;;;;;;;;;;;;5074887;28;20069;-77
2021/08/25 12:28:34;;;;;;;5.45;3.35;;;;;;;;;;5074079;28;19908;-77
2021/08/25 12:31:09;;;;;;;5.97;3.83;;;;;;;;;;5074408;28;20042;-77
2021/08/25 12:33:35;;;;;;;6.05;3.83;;;;;;;;;;5072793;28;20016;-76
2021/08/25 12:36:20;;;;;;;7.18;3.47;;;;;;;;;;5073981;28;20025;-79
2021/08/25 12:38:46;;;;;;;5.53;3.25;;;;;;;;;;5074231;28;20025;-77
2021/08/25 12:41:12;;;;;;;5.88;3.53;;;;;;;;;;5074160;28;20039;-78
2021/08/25 12:43:38;;;;;;;6.50;3.40;;;;;;;;;;5073879;28;20021;-77
2021/08/25 12:46:04;;;;;;;5.35;3.30;;;;;;;;;;5074106;28;20028;-77
2021/08/25 12:48:30;;;;;;;6.57;3.50;;;;;;;;;;5073699;28;20025;-77
2021/08/25 12:50:56;;;;;;;7.70;3.65;;;;;;;;;;5073756;28;20059;-78
2021/08/25 12:53:22;;;;;;;7.47;4.13;;;;;;;;;;5073695;28;20024;-76
2021/08/25 12:55:48;;;;;;;8.35;3.45;;;;;;;;;;5073953;28;20142;-76
2021/08/25 12:58:14;;;;;;;6.85;3.67;;;;;;;;;;5073618;28;20025;-78
2021/08/25 13:00:40;;;;;;;7.22;3.45;;;;;;;;;;5077982;28;20028;-78
2021/08/25 13:03:07;;;;;;;6.55;3.80;;;;;;;;;;5077666;28;20021;-78
2021/08/25 13:05:33;;;;;;;7.53;3.88;;;;;;;;;;5074357;28;20118;-78
2021/08/25 13:07:59;;;;;;;7.40;4.15;;;;;;;;;;5073795;28;20016;-78
2021/08/25 13:10:25;;;;;;;13.20;4.07;;;;;;;;;;5072433;28;20032;-78
2021/08/25 13:12:51;;;;;;;8.88;3.65;;;;;;;;;;5073624;28;20051;-77
2021/08/25 13:15:17;;;;;;;6.95;3.60;;;;;;;;;;5074605;28;20020;-77
2021/08/25 13:17:43;;;;;;;8.25;4.10;;;;;;;;;;5072447;28;20040;-77
2021/08/25 13:20:10;;;;;;;6.43;3.35;;;;;;;;;;5072388;28;20405;-76
2021/08/25 13:22:36;;;;;;;5.57;3.28;;;;;;;;;;5073572;28;20020;-78
2021/08/25 13:25:02;;;;;;;6.43;3.47;;;;;;;;;;5073150;28;20097;-77
2021/08/25 13:27:28;;;;;;;7.10;3.90;;;;;;;;;;5073263;28;20016;-78
2021/08/25 13:29:54;;;;;;;6.20;3.53;;;;;;;;;;5073409;28;20472;-78
2021/08/25 13:32:20;;;;;;;6.60;3.70;;;;;;;;;;5073301;28;20056;-78
2021/08/25 13:34:46;;;;;;;7.05;3.67;;;;;;;;;;5073212;28;20496;-78
2021/08/25 13:37:12;;;;;;;6.05;3.60;;;;;;;;;;5073363;28;20361;-78
2021/08/25 13:39:40;;;;;;;6.25;3.50;;;;;;;;;;5073473;28;20400;-78
2021/08/25 13:42:06;;;;;;;7.88;3.72;;;;;;;;;;5073267;28;20027;-78
2021/08/25 13:44:32;;;;;;;8.63;4.20;;;;;;;;;;5073170;28;20107;-77
2021/08/25 13:46:58;;;;;;;6.43;3.42;;;;;;;;;;5073036;28;20060;-76
2021/08/25 13:49:24;;;;;;;6.18;3.70;;;;;;;;;;5073164;28;20060;-78
2021/08/25 13:51:50;;;;;;;6.88;3.40;;;;;;;;;;5072916;28;20600;-76
2021/08/25 13:54:16;;;;;;;5.47;3.35;;;;;;;;;;5073929;28;20016;-77
2021/08/25 13:56:42;;;;;;;5.65;3.35;;;;;;;;;;5072996;28;20150;-78
2021/08/25 13:59:08;;;;;;;7.88;3.60;;;;;;;;;;5073448;28;20104;-78
2021/08/25 14:01:34;;;;;;;6.65;3.50;;;;;;;;;;5073191;28;20025;-77
2021/08/25 14:04:00;;;;;;;6.85;3.30;;;;;;;;;;5072615;28;20102;-76
2021/08/25 14:06:29;;;;;;;6.95;3.58;;;;;;;;;;5072899;28;20040;-76
2021/08/25 14:08:55;;;;;;;6.22;3.80;;;;;;;;;;5072574;28;20058;-76
2021/08/25 14:11:21;;;;;;;9.88;4.20;;;;;;;;;;5072113;28;20110;-76
2021/08/25 14:13:47;;;;;;;7.15;3.70;;;;;;;;;;5072509;28;20025;-76
2021/08/25 14:16:13;;;;;;;7.25;3.35;;;;;;;;;;5072589;28;20035;-74
2021/08/25 14:18:39;;;;;;;6.82;3.47;;;;;;;;;;5072484;28;20098;-76
2021/08/25 14:21:06;;;;;;;5.50;3.25;;;;;;;;;;5073479;28;20024;-77
2021/08/25 14:23:32;;;;;;;8.13;3.40;;;;;;;;;;5072859;28;20059;-77
2021/08/25 14:25:58;;;;;;;6.55;3.63;;;;;;;;;;5072915;28;20060;-75
2021/08/25 14:28:24;;;;;;;7.50;3.78;;;;;;;;;;5072529;28;20066;-77
2021/08/25 14:30:51;;;;;;;8.35;3.65;;;;;;;;;;5071345;28;20040;-76
2021/08/25 14:33:17;;;;;;;5.63;3.47;;;;;;;;;;5072643;28;20024;-77
2021/08/25 14:35:43;;;;;;;8.10;3.95;;;;;;;;;;5071318;28;20031;-76
2021/08/25 14:38:10;;;;;;;7.15;3.80;;;;;;;;;;5075055;28;20024;-74